Terminal Aerodrome Forecast
Issued by NWS

Home | Current Version | Previous Version | Text Only | Print | Product List | Glossary On
Versions: 1 2 3 4 5 6 7 8 9 10 11 12 13 14 15
955
FTUS45 KABQ 251131
TAFAEG
TAF
KAEG 251131Z 2512/2612 VRB05KT P6SM FEW050
     FM251900 19008KT P6SM FEW090
     FM252300 21011KT P6SM VCSH SCT100 SCT200
     FM260300 14011KT P6SM SCT100 SCT200=

USA.gov is the U.S. government's official web portal to all federal, state and local government web resources and services.